Big Bear Lake, CA

12:57 PM PDT on October 23, 2014 (GMT -0700)
March Air Reserve Base | Change Station
CLOSE
Current Station
Airport
Location: Riverside March,
Elevation: 1535 ft
Nearby Weather Stations

Elev 1535 ft 33.90 °N, 117.25 °W | Updated 59 minutes ago

Clear
Clear
86 °F
Feels Like 86 °F
N
2
Wind Variable Wind from Variable

Today
High -- | Low -- °F
--% Chance of Precip.
Yesterday
High -- | Low -- °F
Precip. -- in
6:59 AM 6:03 PM
Waning Crescent, 0% visible
Pressure 29.99 in
Visibility 10.0 miles
Clouds Clear
Dew Point 32 °F
Humidity 14%
Rainfall 0.00 in
Snow Depth Not available.
UV 6 out of 12
Pollen 3.70 out of 12
Air Quality Not available.
Flu Activity Sporadic
METAR KRIV 231858Z AUTO VRB02KT 10SM CLR 30/00 A3002 RMK AO2 SLP154 T02991000

More Conditions Fewer Conditions

Pressure 29.99 in
Visibility 10.0 miles
Clouds Clear
Dew Point 32 °F
Humidity 14%
Rainfall 0.00 in
Snow Depth Not available.
UV 6 out of 12
Pollen 3.70 out of 12
Air Quality Not available.
Flu Activity Sporadic
METAR KRIV 231858Z AUTO VRB02KT 10SM CLR 30/00 A3002 RMK AO2 SLP154 T02991000

More Conditions Fewer Conditions

10-Day Weather Forecast

Almanac

Astronomy

Oct. 23, 2014 Rise Set
Actual Time 6:59 AM PDT 6:03 PM PDT
Civil Twilight 6:34 AM PDT 6:29 PM PDT
Nautical Twilight 6:04 AM PDT 6:58 PM PDT
Astronomical Twilight 5:35 AM PDT 7:27 PM PDT
Moon 6:44 AM PDT 6:08 PM PDT
Length of Visible Light 11h 55m
Length of Day
11h 04m
Tomorrow will be 1m 58s shorter.
Waning Crescent, 0% of the Moon is Illuminated
Today
Waning Crescent
Oct 23
New
Oct 30
First Quarter
Nov 6
Full
Nov 14
Last Quarter

Today's Extremes

State Highs State Lows

Community

WunderPhotos

Upload Photos

1,764,350 photos uploaded!

WunderBlogs® & News

By Dr. Jeff Masters
Director of Meteorology, Weather Underground
By Kari Strenfel
Meteorologist, Weather Underground
By Christopher C. Burt
Weather Historian, Weather Underground
October 23, 2014
October 23, 2014
October 23, 2014

Nearby

Air Quality

  Air Quality AQ Index Pollutant
Thursday Good
PM10
Thursday Good
OZONE
Thursday Good
CO
Thursday Good
NO2

Snow Depth

Station Depth Elevation
Virginia Lakes Ridge 0 in 9200 ft
Leavitt Lake 0 in 9400 ft
Leavitt Meadows 0 in 7200 ft
Summit Meadow 1 in 9122 ft
Monitor Pass 1 in 8350 ft

Earthquake Activity

City Distance Mag. Time & Date
Delta, Mexico 157 miles 2.5 8:53 PM PDT
2014-10-21
Minimum magnitude displayed is 2.5.

Coastal Water Temperatures

Place Temperature
No Stations Reporting

Nearby Weather Stations